createdAt,value
2019-06-26T00:02:49.014Z,958.1
2019-06-26T00:05:55.147Z,958.1
2019-06-26T00:09:01.399Z,958.1
2019-06-26T00:12:07.732Z,957.9
2019-06-26T00:15:14.037Z,958
2019-06-26T00:18:20.271Z,958
2019-06-26T00:21:26.405Z,958.1
2019-06-26T00:24:32.599Z,958
2019-06-26T00:27:38.763Z,958.1
2019-06-26T00:30:45.326Z,958.1
2019-06-26T00:33:51.510Z,958.2
2019-06-26T00:36:57.698Z,958.1
2019-06-26T00:40:03.859Z,958.1
2019-06-26T00:43:10.126Z,958.1
2019-06-26T00:46:16.255Z,958.1
2019-06-26T00:49:22.456Z,958.1
2019-06-26T00:52:28.729Z,958
2019-06-26T00:55:34.872Z,958
2019-06-26T00:58:41.270Z,958.1
2019-06-26T01:01:50.537Z,958.2
2019-06-26T01:04:56.865Z,958.1
2019-06-26T01:08:03.081Z,958.1
2019-06-26T01:11:09.367Z,958
2019-06-26T01:14:15.561Z,957.9
2019-06-26T01:17:21.689Z,958
2019-06-26T01:20:27.890Z,958.1
2019-06-26T01:23:34.031Z,958
2019-06-26T01:26:40.217Z,958
2019-06-26T01:29:46.481Z,958
2019-06-26T01:32:55.471Z,958.1
2019-06-26T01:36:01.773Z,958.1
2019-06-26T01:39:08.000Z,958
2019-06-26T01:42:14.213Z,958.1
2019-06-26T01:45:20.339Z,958.2
2019-06-26T01:48:26.534Z,958.2
2019-06-26T01:51:32.701Z,958.2
2019-06-26T01:54:38.825Z,958.2
2019-06-26T01:57:45.028Z,958.2
2019-06-26T02:00:51.154Z,958.2
2019-06-26T02:03:57.357Z,958.2
2019-06-26T02:07:03.670Z,958.2
2019-06-26T02:10:09.904Z,958.1
2019-06-26T02:13:16.170Z,958.2
2019-06-26T02:16:22.469Z,958.2
2019-06-26T02:19:28.632Z,958.2
2019-06-26T02:22:34.955Z,958.2
2019-06-26T02:25:41.115Z,958.3
2019-06-26T02:28:47.382Z,958.2
2019-06-26T02:31:53.599Z,958.3
2019-06-26T02:34:59.937Z,958.3
2019-06-26T02:38:06.289Z,958.3
2019-06-26T02:41:12.440Z,958.3
2019-06-26T02:44:18.721Z,958.4
2019-06-26T02:47:24.849Z,958.4
2019-06-26T02:50:31.056Z,958.3
2019-06-26T02:53:37.328Z,958.3
2019-06-26T02:56:43.444Z,958.3
2019-06-26T02:59:49.741Z,958.2
2019-06-26T03:02:56.163Z,958.3
2019-06-26T03:06:02.482Z,958.3
2019-06-26T03:09:08.853Z,958.2
2019-06-26T03:12:15.123Z,958.3
2019-06-26T03:15:21.349Z,958.3
2019-06-26T03:18:27.649Z,958.3
2019-06-26T03:21:33.814Z,958.2
2019-06-26T03:24:39.981Z,958.2
2019-06-26T03:27:46.258Z,958.2
2019-06-26T03:30:52.412Z,958.2
2019-06-26T03:33:58.584Z,958.2
2019-06-26T03:37:04.736Z,958.2
2019-06-26T03:40:11.054Z,958.2
2019-06-26T03:43:17.269Z,958.2
2019-06-26T03:46:23.537Z,958.2
2019-06-26T03:49:29.700Z,958.2
2019-06-26T03:52:35.922Z,958.2
2019-06-26T03:55:42.027Z,958.1
2019-06-26T03:58:48.181Z,958.2
2019-06-26T04:01:54.457Z,958.1
2019-06-26T04:05:00.883Z,958.2
2019-06-26T04:08:07.173Z,958.2
2019-06-26T04:11:13.513Z,958.3
2019-06-26T04:14:19.887Z,958.3
2019-06-26T04:17:26.131Z,958.3
2019-06-26T04:20:32.386Z,958.3
2019-06-26T04:23:38.493Z,958.4
2019-06-26T04:26:44.695Z,958.4
2019-06-26T04:29:50.964Z,958.4
2019-06-26T04:32:57.286Z,958.4
2019-06-26T04:36:03.459Z,958.4
2019-06-26T04:39:09.761Z,958.5
2019-06-26T04:42:16.033Z,958.4
2019-06-26T04:45:22.167Z,958.5
2019-06-26T04:48:28.464Z,958.5
2019-06-26T04:51:34.613Z,958.5
2019-06-26T04:54:41.050Z,958.6
2019-06-26T04:57:47.217Z,958.5
2019-06-26T05:00:53.582Z,958.6
2019-06-26T05:03:59.711Z,958.6
2019-06-26T05:07:05.962Z,958.6
2019-06-26T05:10:12.084Z,958.6
2019-06-26T05:13:21.375Z,958.7
2019-06-26T05:16:27.573Z,958.7
2019-06-26T05:19:33.709Z,958.7
2019-06-26T05:22:39.952Z,958.8
2019-06-26T05:25:46.113Z,958.8
2019-06-26T05:28:52.314Z,958.9
2019-06-26T05:32:01.364Z,958.9
2019-06-26T05:35:07.562Z,958.8
2019-06-26T05:38:13.829Z,958.9
2019-06-26T05:41:20.113Z,958.8
2019-06-26T05:44:26.379Z,958.9
2019-06-26T05:47:32.536Z,959
2019-06-26T05:50:38.698Z,959
2019-06-26T05:53:45.007Z,959
2019-06-26T05:56:51.242Z,959
2019-06-26T05:59:57.616Z,959
2019-06-26T06:03:03.795Z,959.1
2019-06-26T06:06:10.040Z,959.1
2019-06-26T06:09:16.162Z,959.1
2019-06-26T06:12:22.457Z,959
2019-06-26T06:15:28.956Z,959.1
2019-06-26T06:18:35.413Z,959
2019-06-26T06:21:41.578Z,959.1
2019-06-26T06:24:47.841Z,959.1
2019-06-26T06:27:54.030Z,959.1
2019-06-26T06:31:00.815Z,959.1
2019-06-26T06:34:07.358Z,959.2
2019-06-26T06:37:13.557Z,959.1
2019-06-26T06:40:19.792Z,959.1
2019-06-26T06:43:26.060Z,959.1
2019-06-26T06:46:32.184Z,959.1
2019-06-26T06:49:38.547Z,959.2
2019-06-26T06:52:44.757Z,959.1
2019-06-26T06:55:50.890Z,959.2
2019-06-26T06:58:57.189Z,959.2
2019-06-26T07:02:03.523Z,959.2
2019-06-26T07:05:09.989Z,959.2
2019-06-26T07:08:16.406Z,959.2
2019-06-26T07:11:22.572Z,959.3
2019-06-26T07:14:28.837Z,959.2
2019-06-26T07:17:34.972Z,959.2
2019-06-26T07:20:45.005Z,959.3
2019-06-26T07:23:51.224Z,959.3
2019-06-26T07:26:57.527Z,959.3
2019-06-26T07:30:03.909Z,959.3
2019-06-26T07:33:10.151Z,959.3
2019-06-26T07:36:16.271Z,959.3
2019-06-26T07:39:22.550Z,959.3
2019-06-26T07:42:28.776Z,959.3
2019-06-26T07:45:35.020Z,959.4
2019-06-26T07:48:41.304Z,959.3
2019-06-26T07:51:47.440Z,959.3
2019-06-26T07:54:53.917Z,959.3
2019-06-26T07:58:00.182Z,959.3
2019-06-26T08:01:06.545Z,959.3
2019-06-26T08:04:12.900Z,959.2
2019-06-26T08:07:19.099Z,959.3
2019-06-26T08:10:25.337Z,959.3
2019-06-26T08:13:31.850Z,959.3
2019-06-26T08:16:38.001Z,959.4
2019-06-26T08:19:44.568Z,959.4
2019-06-26T08:22:50.703Z,959.4
2019-06-26T08:25:56.978Z,959.4
2019-06-26T08:29:03.112Z,959.3
2019-06-26T08:32:09.305Z,959.3
2019-06-26T08:35:15.515Z,959.4
2019-06-26T08:38:21.723Z,959.4
2019-06-26T08:41:30.843Z,959.5
2019-06-26T08:44:37.034Z,959.5
2019-06-26T08:47:43.353Z,959.5
2019-06-26T08:50:49.482Z,959.4
2019-06-26T08:53:55.733Z,959.5
2019-06-26T08:57:01.910Z,959.5
2019-06-26T09:00:08.046Z,959.5
2019-06-26T09:03:14.281Z,959.5
2019-06-26T09:06:20.425Z,959.5
2019-06-26T09:09:26.674Z,959.5
2019-06-26T09:12:32.928Z,959.5
2019-06-26T09:15:39.350Z,959.5
2019-06-26T09:18:45.586Z,959.5
2019-06-26T09:21:51.937Z,959.5
2019-06-26T09:24:58.214Z,959.5
2019-06-26T09:28:04.405Z,959.4
2019-06-26T09:31:10.685Z,959.5
2019-06-26T09:34:16.827Z,959.5
2019-06-26T09:37:23.052Z,959.5
2019-06-26T09:40:32.977Z,959.4
2019-06-26T09:43:39.108Z,959.4
2019-06-26T09:46:45.454Z,959.3
2019-06-26T09:49:51.583Z,959.4
2019-06-26T09:52:57.891Z,959.4
2019-06-26T09:56:04.029Z,959.4
2019-06-26T09:59:10.317Z,959.4
2019-06-26T10:02:16.525Z,959.3
2019-06-26T10:05:22.803Z,959.3
2019-06-26T10:08:29.123Z,959.3
2019-06-26T10:11:35.266Z,959.2
2019-06-26T10:14:48.874Z,959.3
2019-06-26T10:17:55.103Z,959.2
2019-06-26T10:21:01.471Z,959.2
2019-06-26T10:24:07.787Z,959.1
2019-06-26T10:27:14.033Z,959.1
2019-06-26T10:30:20.561Z,959
2019-06-26T10:33:26.841Z,959
2019-06-26T10:36:33.071Z,959.1
2019-06-26T10:39:39.202Z,959
2019-06-26T10:42:45.351Z,959
2019-06-26T10:45:51.547Z,958.9
2019-06-26T10:48:57.676Z,958.8
2019-06-26T10:52:03.872Z,958.8
2019-06-26T10:55:10.087Z,958.8
2019-06-26T10:58:16.357Z,958.8
2019-06-26T11:01:22.490Z,958.7
2019-06-26T11:04:28.694Z,958.7
2019-06-26T11:07:37.645Z,958.8
2019-06-26T11:10:44.016Z,958.7
2019-06-26T11:13:53.935Z,958.8
2019-06-26T11:17:00.409Z,958.7
2019-06-26T11:20:07.283Z,958.7
2019-06-26T11:23:16.169Z,958.5
2019-06-26T11:26:22.367Z,958.6
2019-06-26T11:29:28.882Z,958.6
2019-06-26T11:32:35.247Z,958.6
2019-06-26T11:35:41.801Z,958.6
2019-06-26T11:38:48.012Z,958.6
2019-06-26T11:41:54.242Z,958.6
2019-06-26T11:45:03.016Z,958.5
2019-06-26T11:48:13.386Z,958.5
2019-06-26T11:51:20.550Z,958.5
2019-06-26T11:54:26.798Z,958.5
2019-06-26T11:57:33.020Z,958.5
2019-06-26T12:00:42.827Z,958.5
2019-06-26T12:03:49.259Z,958.5
2019-06-26T12:06:58.226Z,958.4
2019-06-26T12:10:04.798Z,958.4
2019-06-26T12:13:11.598Z,958.4
2019-06-26T12:16:17.741Z,958.3
2019-06-26T12:19:24.827Z,958.3
2019-06-26T12:22:30.973Z,958.3
2019-06-26T12:25:37.116Z,958.2
2019-06-26T12:28:43.642Z,958.2
2019-06-26T12:31:49.894Z,958.2
2019-06-26T12:34:56.112Z,958.2
2019-06-26T12:38:02.431Z,958.2
2019-06-26T12:41:08.749Z,958.1
2019-06-26T12:44:15.011Z,958.1
2019-06-26T12:47:23.837Z,958.1
2019-06-26T12:50:37.018Z,958.1
2019-06-26T12:53:45.562Z,958.1
2019-06-26T12:56:51.702Z,958
2019-06-26T12:59:59.314Z,957.9
2019-06-26T13:03:05.567Z,957.9
2019-06-26T13:06:11.779Z,957.8
2019-06-26T13:09:17.999Z,957.8
2019-06-26T13:12:24.191Z,957.7
2019-06-26T13:15:30.358Z,957.8
2019-06-26T13:18:36.514Z,957.8
2019-06-26T13:21:42.692Z,957.7
2019-06-26T13:24:48.841Z,957.8
2019-06-26T13:27:55.047Z,957.7
2019-06-26T13:31:01.356Z,957.7
2019-06-26T13:34:07.736Z,957.7
2019-06-26T13:37:13.956Z,957.7
2019-06-26T13:40:20.199Z,957.8
2019-06-26T13:43:26.343Z,957.7
2019-06-26T13:46:32.711Z,957.8
2019-06-26T13:49:38.878Z,957.7
2019-06-26T13:52:45.130Z,957.6
2019-06-26T13:55:51.396Z,957.7
2019-06-26T13:58:57.661Z,957.6
2019-06-26T14:02:03.935Z,957.6
2019-06-26T14:05:10.199Z,957.6
2019-06-26T14:08:16.472Z,957.6
2019-06-26T14:11:22.659Z,957.4
2019-06-26T14:14:58.092Z,957.4
2019-06-26T14:18:04.568Z,957.4
2019-06-26T14:21:27.040Z,957.4
2019-06-26T14:24:33.674Z,957.4
2019-06-26T14:27:39.940Z,957.4
2019-06-26T14:30:46.076Z,957.4
2019-06-26T14:46:31.810Z,957.4
2019-06-26T14:49:37.944Z,957.4
2019-06-26T14:52:46.998Z,957.3
2019-06-26T14:55:53.160Z,957.2
2019-06-26T14:58:59.610Z,957.2
2019-06-26T15:02:05.875Z,957.1
2019-06-26T15:05:12.193Z,957.1
2019-06-26T15:08:18.365Z,957.1
2019-06-26T15:11:24.683Z,957.1
2019-06-26T15:14:30.968Z,957.4
2019-06-26T15:17:37.213Z,957.3
2019-06-26T15:20:46.122Z,957.3
2019-06-26T15:23:52.238Z,957.3
2019-06-26T15:26:58.580Z,957.3
2019-06-26T15:30:04.848Z,957.3
2019-06-26T15:33:11.114Z,957.2
2019-06-26T15:36:17.321Z,957.2
2019-06-26T15:39:23.544Z,957.3
2019-06-26T15:42:29.909Z,957.3
2019-06-26T15:45:36.174Z,957.3
2019-06-26T15:48:42.412Z,957.3
2019-06-26T15:51:48.609Z,957.3
2019-06-26T15:54:54.877Z,957.3
2019-06-26T15:58:01.143Z,957.3
2019-06-26T16:01:07.305Z,957.4
2019-06-26T16:04:13.679Z,957.5
2019-06-26T16:07:19.944Z,957.5
2019-06-26T16:10:26.208Z,957.6
2019-06-26T16:13:32.578Z,957.6
2019-06-26T16:16:38.745Z,957.7
2019-06-26T16:19:45.065Z,957.8
2019-06-26T16:22:51.282Z,957.7
2019-06-26T16:25:57.551Z,957.7
2019-06-26T16:29:03.709Z,957.7
2019-06-26T16:32:09.984Z,957.5
2019-06-26T16:35:18.838Z,957.5
2019-06-26T16:38:25.180Z,957.5
2019-06-26T16:41:31.343Z,957.5
2019-06-26T16:44:37.537Z,957.4
2019-06-26T16:47:43.776Z,957.4
2019-06-26T16:50:49.988Z,957.5
2019-06-26T16:53:56.134Z,957.5
2019-06-26T16:57:02.371Z,957.5
2019-06-26T17:00:11.201Z,957.6
2019-06-26T17:03:17.463Z,957.5
2019-06-26T17:06:23.648Z,957.4
2019-06-26T17:09:29.892Z,957.4
2019-06-26T17:12:36.166Z,957.3
2019-06-26T17:15:42.292Z,957.3
2019-06-26T17:18:48.592Z,957.2
2019-06-26T17:21:54.865Z,957.1
2019-06-26T17:25:01.125Z,957.1
2019-06-26T17:28:07.752Z,957
2019-06-26T17:31:13.838Z,957
2019-06-26T17:34:20.141Z,957
2019-06-26T17:37:26.425Z,957
2019-06-26T17:40:32.673Z,957
2019-06-26T17:43:41.601Z,957.1
2019-06-26T17:46:47.763Z,957.1
2019-06-26T17:49:54.034Z,957.2
2019-06-26T17:53:00.298Z,957.3
2019-06-26T17:56:06.616Z,957.3
2019-06-26T17:59:12.839Z,957.3
2019-06-26T18:02:19.104Z,957.4
2019-06-26T18:05:25.432Z,957.4
2019-06-26T18:08:31.659Z,957.4
2019-06-26T18:11:37.926Z,957.4
2019-06-26T18:14:44.714Z,957.4
2019-06-26T18:17:50.868Z,957.3
2019-06-26T18:20:57.136Z,957.3
2019-06-26T18:24:03.238Z,957.5
2019-06-26T18:27:09.669Z,957.4
2019-06-26T18:30:15.922Z,957.4
2019-06-26T18:33:24.759Z,957.5
2019-06-26T18:36:34.741Z,957.6
2019-06-26T18:39:40.963Z,957.6
2019-06-26T18:42:47.089Z,957.7
2019-06-26T18:45:53.300Z,957.6
2019-06-26T18:48:59.560Z,957.7
2019-06-26T18:52:08.998Z,957.7
2019-06-26T18:55:17.677Z,957.7
2019-06-26T18:58:23.888Z,957.7
2019-06-26T19:01:30.152Z,957.7
2019-06-26T19:04:36.345Z,957.7
2019-06-26T19:07:42.583Z,957.7
2019-06-26T19:10:48.831Z,957.7
2019-06-26T19:13:54.958Z,957.8
2019-06-26T19:17:01.187Z,957.7
2019-06-26T19:20:07.506Z,957.7
2019-06-26T19:23:13.646Z,957.7
2019-06-26T19:26:20.090Z,957.7
2019-06-26T19:29:26.354Z,957.7
2019-06-26T19:32:32.726Z,957.7
2019-06-26T19:35:42.475Z,957.7
2019-06-26T19:38:48.841Z,957.7
2019-06-26T19:41:54.967Z,957.7
2019-06-26T19:45:01.390Z,957.7
2019-06-26T19:48:07.947Z,957.7
2019-06-26T19:51:14.108Z,957.7
2019-06-26T19:54:32.619Z,957.8
2019-06-26T19:57:38.681Z,957.8
2019-06-26T20:00:45.153Z,957.8
2019-06-26T20:03:57.013Z,957.8
2019-06-26T20:11:24.701Z,957.8
2019-06-26T20:14:51.226Z,957.8
2019-06-26T20:21:12.062Z,957.8
2019-06-26T20:28:34.081Z,957.7
2019-06-26T20:33:39.272Z,957.7
2019-06-26T20:37:17.793Z,957.8
2019-06-26T20:41:00.005Z,957.7
2019-06-26T20:49:31.976Z,957.7
2019-06-26T20:52:40.414Z,957.7
2019-06-26T20:56:40.384Z,957.7
2019-06-26T20:59:59.178Z,957.7
2019-06-26T21:03:56.798Z,957.7
2019-06-26T21:07:13.785Z,957.6
2019-06-26T21:12:57.294Z,957.6
2019-06-26T21:17:05.978Z,957.6
2019-06-26T21:21:15.053Z,957.6
2019-06-26T21:24:46.576Z,957.6
2019-06-26T21:29:34.479Z,957.6
2019-06-26T21:33:21.032Z,957.6
2019-06-26T21:37:47.443Z,957.5
2019-06-26T21:41:15.456Z,957.5
2019-06-26T21:44:31.734Z,957.6
2019-06-26T21:49:17.711Z,957.5
2019-06-26T21:52:36.269Z,957.5
2019-06-26T21:55:42.740Z,957.5
2019-06-26T21:58:49.080Z,957.5
2019-06-26T22:01:55.350Z,957.5
2019-06-26T22:05:01.576Z,957.5
2019-06-26T22:08:07.985Z,957.5
2019-06-26T22:11:14.110Z,957.5
2019-06-26T22:14:20.304Z,957.5
2019-06-26T22:17:26.513Z,957.5
2019-06-26T22:20:32.626Z,957.4
2019-06-26T22:23:38.860Z,957.4
2019-06-26T22:26:44.987Z,957.4
2019-06-26T22:29:51.316Z,957.4
2019-06-26T22:32:57.564Z,957.3
2019-06-26T22:36:03.921Z,957.4
2019-06-26T22:39:10.091Z,957.4
2019-06-26T22:42:16.262Z,957.3
2019-06-26T22:45:22.384Z,957.3
2019-06-26T22:48:28.583Z,957.3
2019-06-26T22:51:34.727Z,957.2
2019-06-26T22:54:41.014Z,957.2
2019-06-26T22:57:47.143Z,957.2
2019-06-26T23:00:53.505Z,957.2
2019-06-26T23:03:59.818Z,957.1
2019-06-26T23:07:05.940Z,957.2
2019-06-26T23:10:12.141Z,957.2
2019-06-26T23:13:18.288Z,957.2
2019-06-26T23:16:24.518Z,957.1
2019-06-26T23:19:30.648Z,957.1
2019-06-26T23:22:36.897Z,957.1
2019-06-26T23:25:43.171Z,957.1
2019-06-26T23:28:49.329Z,957
2019-06-26T23:31:55.499Z,957
2019-06-26T23:35:01.869Z,957.1
2019-06-26T23:38:07.999Z,957.1
2019-06-26T23:41:15.822Z,957.1
2019-06-26T23:44:24.002Z,957.1
2019-06-26T23:47:30.215Z,957.1
2019-06-26T23:50:36.330Z,957.1
2019-06-26T23:53:42.588Z,957
2019-06-26T23:56:48.903Z,957
2019-06-26T23:59:57.786Z,957
